Time;durP1;ratioP1;P1;durP2;ratioP2;P2;SDS_P1;SDS_P2;PMS_P1;PMS_P2;Temp;Humidity;BMP_temperature;BMP_pressure;BME280_temperature;BME280_humidity;BME280_pressure;Samples;Min_cycle;Max_cycle;Signal;HPM_P1;HPM_P2
2023/05/11 00:00:11;;;;;;;60.03;54.88;;;10.90;99.90;;;;;;4984288;28;20042;-73
2023/05/11 00:02:36;;;;;;;68.30;63.42;;;10.90;99.90;;;;;;4986190;28;20124;-73
2023/05/11 00:05:02;;;;;;;68.75;63.67;;;10.90;99.90;;;;;;4987375;28;21628;-73
2023/05/11 00:07:28;;;;;;;75.45;69.90;;;10.90;99.90;;;;;;4986349;28;20038;-73
2023/05/11 00:09:54;;;;;;;67.53;60.50;;;10.90;99.90;;;;;;4986778;28;20038;-73
2023/05/11 00:12:19;;;;;;;80.45;58.60;;;10.90;99.90;;;;;;4981569;28;20499;-73
2023/05/11 00:14:45;;;;;;;66.05;61.05;;;10.90;99.90;;;;;;4987431;28;20046;-73
2023/05/11 00:17:11;;;;;;;60.83;55.22;;;10.90;99.90;;;;;;4986865;28;20142;-73
2023/05/11 00:19:36;;;;;;;64.90;53.70;;;10.90;99.90;;;;;;4986244;28;20038;-73
2023/05/11 00:22:02;;;;;;;79.70;55.30;;;10.90;99.90;;;;;;4969847;28;20088;-73
2023/05/11 00:24:28;;;;;;;60.03;54.25;;;10.90;99.90;;;;;;4985579;28;20161;-73
2023/05/11 00:26:54;;;;;;;60.92;56.03;;;10.90;99.90;;;;;;4986954;28;20125;-73
2023/05/11 00:29:20;;;;;;;59.97;54.25;;;10.90;99.90;;;;;;4986366;28;20042;-73
2023/05/11 00:31:46;;;;;;;64.10;55.33;;;11.00;99.90;;;;;;4985031;28;20057;-74
2023/05/11 00:34:13;;;;;;;55.60;49.83;;;11.00;99.90;;;;;;4985898;28;20442;-73
2023/05/11 00:36:39;;;;;;;69.90;55.72;;;11.00;99.90;;;;;;4982946;28;20042;-73
2023/05/11 00:39:05;;;;;;;60.83;56.05;;;11.00;99.90;;;;;;4986498;28;20505;-73
2023/05/11 00:41:30;;;;;;;60.67;56.45;;;11.00;99.90;;;;;;4985856;28;20049;-73
2023/05/11 00:43:56;;;;;;;74.28;52.97;;;10.90;99.90;;;;;;4982730;28;20046;-74
2023/05/11 00:46:22;;;;;;;57.40;51.70;;;11.00;99.90;;;;;;4985146;28;20047;-73
2023/05/11 00:48:48;;;;;;;59.65;54.92;;;11.00;99.90;;;;;;4971150;28;20046;-73
2023/05/11 00:51:14;;;;;;;61.45;56.25;;;11.00;99.90;;;;;;4984835;28;20073;-73
2023/05/11 00:53:40;;;;;;;71.20;65.78;;;11.00;99.90;;;;;;4988867;28;20052;-73
2023/05/11 00:56:07;;;;;;;63.33;57.33;;;11.00;99.90;;;;;;5001901;28;20533;-73
2023/05/11 00:58:33;;;;;;;72.45;66.35;;;11.00;99.90;;;;;;4985158;28;20039;-74
2023/05/11 01:00:59;;;;;;;74.25;67.43;;;11.00;99.90;;;;;;4984070;28;20066;-73
2023/05/11 01:03:25;;;;;;;76.07;70.25;;;11.00;99.90;;;;;;4984504;28;20054;-73
2023/05/11 01:06:05;;;;;;;81.20;75.25;;;11.00;99.90;;;;;;4969824;28;20435;-73
2023/05/11 01:08:58;;;;;;;89.60;82.95;;;11.00;99.90;;;;;;4977557;28;20062;-73
2023/05/11 01:11:50;;;;;;;87.55;81.43;;;11.00;99.90;;;;;;4987686;28;20046;-73
2023/05/11 01:14:24;;;;;;;81.18;74.22;;;11.00;99.90;;;;;;4985382;28;20046;-73
2023/05/11 01:16:55;;;;;;;74.85;68.78;;;11.00;99.90;;;;;;4985176;28;20030;-74
2023/05/11 01:19:40;;;;;;;74.72;67.10;;;10.90;99.90;;;;;;4984718;28;20050;-73
2023/05/11 01:22:17;;;;;;;73.47;68.10;;;11.00;99.90;;;;;;4979269;28;20034;-73
2023/05/11 01:25:17;;;;;;;76.90;70.35;;;11.00;99.90;;;;;;4985703;28;20385;-73
2023/05/11 01:28:05;;;;;;;78.07;70.78;;;11.00;99.90;;;;;;4975362;28;20113;-74
2023/05/11 01:31:08;;;;;;;68.20;61.80;;;10.90;99.90;;;;;;4999185;28;20058;-73
2023/05/11 01:33:37;;;;;;;72.95;66.43;;;11.00;99.90;;;;;;4985021;28;20144;-73
2023/05/11 01:36:07;;;;;;;94.93;69.03;;;10.90;99.90;;;;;;4984715;28;20044;-74
2023/05/11 01:38:37;;;;;;;70.15;64.30;;;11.00;99.90;;;;;;4986269;28;20064;-73
2023/05/11 01:41:21;;;;;;;84.88;56.05;;;10.90;99.90;;;;;;4984911;28;20034;-74
2023/05/11 01:43:53;;;;;;;71.03;65.13;;;11.00;99.90;;;;;;4977754;28;20046;-74
2023/05/11 01:46:22;;;;;;;68.75;62.50;;;11.00;99.90;;;;;;4985320;28;20051;-74
2023/05/11 01:48:51;;;;;;;65.60;60.08;;;11.00;99.90;;;;;;4983103;28;20180;-73
2023/05/11 01:51:18;;;;;;;69.80;64.18;;;11.00;99.90;;;;;;4969275;28;20112;-73
2023/05/11 01:53:45;;;;;;;68.95;63.58;;;11.00;99.90;;;;;;4984153;28;20410;-73
2023/05/11 01:56:13;;;;;;;69.60;63.55;;;11.00;99.90;;;;;;4984574;28;20070;-73
2023/05/11 01:58:40;;;;;;;69.43;62.78;;;11.00;99.90;;;;;;4985539;28;20103;-74
2023/05/11 02:01:08;;;;;;;67.80;60.47;;;10.90;99.90;;;;;;4985750;28;20470;-73
2023/05/11 02:03:35;;;;;;;80.28;71.97;;;10.90;99.90;;;;;;4983105;28;20073;-73
2023/05/11 02:06:04;;;;;;;89.53;81.95;;;10.90;99.90;;;;;;4983257;28;20065;-74
2023/05/11 02:08:31;;;;;;;93.50;84.75;;;10.90;99.90;;;;;;4986141;28;20069;-73
2023/05/11 02:10:58;;;;;;;88.55;81.03;;;10.90;99.90;;;;;;4984665;28;20049;-73
2023/05/11 02:13:26;;;;;;;94.22;79.32;;;10.90;99.90;;;;;;4984672;28;20152;-73
2023/05/11 02:15:55;;;;;;;82.20;75.50;;;10.80;99.90;;;;;;4969188;28;20084;-74
2023/05/11 02:18:21;;;;;;;78.28;70.82;;;10.80;99.90;;;;;;4985449;28;20030;-73
2023/05/11 02:20:48;;;;;;;82.00;76.38;;;10.80;99.90;;;;;;4986573;28;20053;-74
2023/05/11 02:23:15;;;;;;;84.82;79.43;;;10.80;99.90;;;;;;4973559;28;20122;-73
2023/05/11 02:25:41;;;;;;;81.07;76.07;;;10.80;99.90;;;;;;4986374;28;20046;-73
2023/05/11 02:28:07;;;;;;;82.53;74.97;;;10.80;99.90;;;;;;4989123;28;20042;-73
2023/05/11 02:30:40;;;;;;;102.07;77.70;;;10.80;99.90;;;;;;4986134;28;20438;-73
2023/05/11 02:33:08;;;;;;;78.20;70.50;;;10.80;99.90;;;;;;4988660;28;20046;-74
2023/05/11 02:35:39;;;;;;;83.25;74.85;;;10.80;99.90;;;;;;4988250;28;20050;-73
2023/05/11 02:38:07;;;;;;;89.55;74.85;;;10.80;99.90;;;;;;5012436;28;20049;-73
2023/05/11 02:40:41;;;;;;;90.93;67.97;;;10.80;99.90;;;;;;4985321;28;20042;-73
2023/05/11 02:43:10;;;;;;;182.60;77.47;;;10.80;99.90;;;;;;4968999;28;20046;-73
2023/05/11 02:45:36;;;;;;;173.63;88.80;;;10.80;99.90;;;;;;4985583;28;20047;-73
2023/05/11 02:48:08;;;;;;;218.45;76.07;;;10.80;99.90;;;;;;4989021;28;20050;-73
2023/05/11 02:50:39;;;;;;;116.88;71.97;;;10.80;99.90;;;;;;4988247;28;20467;-73
2023/05/11 02:53:10;;;;;;;125.32;73.22;;;10.80;99.90;;;;;;4972464;28;20047;-72
2023/05/11 02:55:36;;;;;;;173.48;77.13;;;10.70;99.90;;;;;;4987278;28;20076;-72
2023/05/11 02:58:02;;;;;;;129.07;82.20;;;10.70;99.90;;;;;;4972853;28;20066;-72
2023/05/11 03:00:28;;;;;;;116.65;82.38;;;10.70;99.90;;;;;;4986969;28;20076;-72
2023/05/11 03:02:54;;;;;;;100.10;70.63;;;10.70;99.90;;;;;;4987193;28;20490;-72
2023/05/11 03:05:19;;;;;;;110.65;71.93;;;10.70;99.90;;;;;;4983047;28;20074;-71
2023/05/11 03:07:45;;;;;;;86.68;66.90;;;10.70;99.90;;;;;;4965888;28;20074;-71
2023/05/11 03:10:11;;;;;;;93.32;74.80;;;10.70;99.90;;;;;;5000311;28;20137;-71
2023/05/11 03:12:37;;;;;;;76.35;65.60;;;10.70;99.90;;;;;;4986556;28;20405;-71
2023/05/11 03:15:03;;;;;;;72.72;67.40;;;10.70;99.90;;;;;;4986952;28;20568;-71
2023/05/11 03:17:30;;;;;;;71.40;66.20;;;10.70;99.90;;;;;;4986482;28;20046;-71
2023/05/11 03:19:57;;;;;;;77.25;71.65;;;10.70;99.90;;;;;;4989372;28;20084;-72
2023/05/11 03:22:24;;;;;;;71.20;63.97;;;10.70;99.90;;;;;;4987108;28;20042;-71
2023/05/11 03:24:50;;;;;;;75.70;60.08;;;10.70;99.90;;;;;;4987850;28;20477;-71
2023/05/11 03:27:17;;;;;;;91.38;59.20;;;10.70;99.90;;;;;;4985703;28;20659;-72
2023/05/11 03:29:44;;;;;;;75.85;60.80;;;10.70;99.90;;;;;;4987562;28;20069;-71
2023/05/11 03:32:11;;;;;;;77.28;65.28;;;10.70;99.90;;;;;;4980539;28;20388;-72
2023/05/11 03:34:37;;;;;;;102.45;65.30;;;10.70;99.90;;;;;;4987055;28;20047;-72
2023/05/11 03:37:05;;;;;;;81.20;68.35;;;10.70;99.90;;;;;;4989851;28;20104;-71
2023/05/11 03:39:35;;;;;;;73.03;66.35;;;10.80;99.90;;;;;;4985975;28;20483;-71
2023/05/11 03:42:02;;;;;;;79.22;72.97;;;10.80;99.90;;;;;;4987015;28;20490;-72
2023/05/11 03:44:31;;;;;;;88.72;82.30;;;10.80;99.90;;;;;;4986276;28;20088;-72
2023/05/11 03:47:00;;;;;;;89.90;83.20;;;10.80;99.90;;;;;;4987293;28;20046;-71
2023/05/11 03:49:26;;;;;;;85.07;78.00;;;10.80;99.90;;;;;;4987380;28;20406;-72
2023/05/11 03:51:52;;;;;;;76.22;68.20;;;10.80;99.90;;;;;;4985987;28;20042;-71
2023/05/11 03:54:18;;;;;;;95.50;65.55;;;10.80;99.90;;;;;;4969774;28;20503;-72
2023/05/11 03:56:43;;;;;;;66.07;60.75;;;10.80;99.90;;;;;;4987685;28;20129;-71
2023/05/11 03:59:16;;;;;;;62.00;55.83;;;10.80;99.90;;;;;;4987414;28;20038;-71
2023/05/11 04:01:43;;;;;;;114.75;63.75;;;10.80;99.90;;;;;;4985190;28;20054;-71
2023/05/11 04:04:09;;;;;;;152.82;60.90;;;10.80;99.90;;;;;;4986267;28;20403;-71
2023/05/11 04:06:35;;;;;;;80.80;55.92;;;10.80;99.90;;;;;;4970890;28;20126;-72
2023/05/11 04:09:00;;;;;;;72.93;55.83;;;10.80;99.90;;;;;;4985978;28;20446;-71
2023/05/11 04:11:26;;;;;;;90.72;56.55;;;10.80;99.90;;;;;;4987395;28;20129;-71
2023/05/11 04:13:52;;;;;;;110.80;56.30;;;10.80;99.90;;;;;;4986297;28;20093;-71
2023/05/11 04:16:17;;;;;;;130.60;56.30;;;10.80;99.90;;;;;;4985653;28;20037;-71
2023/05/11 04:18:43;;;;;;;88.70;58.45;;;10.90;99.90;;;;;;4974364;28;20041;-72
2023/05/11 04:21:09;;;;;;;78.20;59.75;;;10.90;99.90;;;;;;4986674;28;20066;-71
2023/05/11 04:23:35;;;;;;;62.83;56.60;;;10.90;99.90;;;;;;4986818;28;20133;-71
2023/05/11 04:26:00;;;;;;;87.07;58.08;;;10.90;99.90;;;;;;4985773;28;20045;-72
2023/05/11 04:28:26;;;;;;;72.45;61.17;;;10.90;99.90;;;;;;4986623;28;20458;-72
2023/05/11 04:30:53;;;;;;;69.15;62.17;;;10.90;99.90;;;;;;4985456;28;20042;-72
2023/05/11 04:33:20;;;;;;;64.35;58.47;;;10.90;99.90;;;;;;4969205;28;20116;-72
2023/05/11 04:35:45;;;;;;;66.78;60.58;;;10.90;99.90;;;;;;4986196;28;20044;-72
2023/05/11 04:38:11;;;;;;;71.22;65.28;;;10.90;99.90;;;;;;4989513;28;20034;-72
2023/05/11 04:40:36;;;;;;;74.25;67.93;;;10.90;99.90;;;;;;4986595;28;20046;-72
2023/05/11 04:43:02;;;;;;;71.93;65.93;;;10.90;99.90;;;;;;4985513;28;20518;-72
2023/05/11 04:45:27;;;;;;;71.30;64.80;;;10.90;99.90;;;;;;4986471;28;20038;-72
2023/05/11 04:47:53;;;;;;;69.43;62.70;;;10.90;99.90;;;;;;4984619;28;20031;-72
2023/05/11 04:50:19;;;;;;;75.35;67.63;;;10.90;99.90;;;;;;4987673;28;20073;-72
2023/05/11 04:52:44;;;;;;;104.07;67.03;;;10.90;99.90;;;;;;4986673;28;20037;-72
2023/05/11 04:55:10;;;;;;;70.75;65.00;;;10.80;99.90;;;;;;4986891;28;20039;-72
2023/05/11 04:57:37;;;;;;;73.18;65.95;;;10.90;99.90;;;;;;4984540;28;20388;-72
2023/05/11 05:00:05;;;;;;;74.88;69.03;;;10.90;99.90;;;;;;4985594;28;20178;-72
2023/05/11 05:02:31;;;;;;;74.82;68.85;;;10.90;99.90;;;;;;4986363;28;20454;-72
2023/05/11 05:04:57;;;;;;;72.50;67.05;;;10.90;99.90;;;;;;4969184;28;20129;-72
2023/05/11 05:07:22;;;;;;;75.05;69.88;;;10.90;99.90;;;;;;4985658;28;20554;-72
2023/05/11 05:09:48;;;;;;;80.20;75.55;;;11.00;99.90;;;;;;4985823;28;20422;-72
2023/05/11 05:12:14;;;;;;;82.15;77.28;;;11.00;99.90;;;;;;4985201;28;20137;-72
2023/05/11 05:14:39;;;;;;;89.82;84.93;;;11.00;99.90;;;;;;4986162;28;20120;-72
2023/05/11 05:17:05;;;;;;;93.72;88.22;;;11.10;99.90;;;;;;4985067;28;20038;-72
2023/05/11 05:19:30;;;;;;;88.93;83.20;;;11.10;99.90;;;;;;4983318;28;20038;-72
2023/05/11 05:21:56;;;;;;;91.03;84.97;;;11.10;99.90;;;;;;4961976;28;20119;-72
2023/05/11 05:24:21;;;;;;;83.80;78.38;;;11.10;99.90;;;;;;4968094;28;20157;-72
2023/05/11 05:26:47;;;;;;;88.43;83.03;;;11.10;99.90;;;;;;4985451;28;20499;-72
2023/05/11 05:29:13;;;;;;;82.63;76.40;;;11.20;99.90;;;;;;4983037;28;20038;-72
2023/05/11 05:31:38;;;;;;;93.70;88.15;;;11.20;99.90;;;;;;4987101;28;20410;-72
2023/05/11 05:34:04;;;;;;;96.32;89.38;;;11.30;99.90;;;;;;4986247;28;20291;-72
2023/05/11 05:36:30;;;;;;;91.32;85.97;;;11.30;99.90;;;;;;4986417;28;20066;-72
2023/05/11 05:38:56;;;;;;;98.40;92.25;;;11.40;99.90;;;;;;4987615;28;20390;-72
2023/05/11 05:41:21;;;;;;;99.22;93.43;;;11.40;99.90;;;;;;4985187;28;20053;-72
2023/05/11 05:43:47;;;;;;;102.85;95.78;;;11.50;99.90;;;;;;4987075;28;20074;-72
2023/05/11 05:46:14;;;;;;;91.85;85.10;;;11.50;99.90;;;;;;4986502;28;20046;-72
2023/05/11 05:48:40;;;;;;;85.93;80.47;;;11.50;99.90;;;;;;4984901;28;20439;-72
2023/05/11 05:51:06;;;;;;;96.68;89.75;;;11.50;99.90;;;;;;4988502;28;20057;-72
2023/05/11 05:53:31;;;;;;;96.22;89.55;;;11.60;99.90;;;;;;4986203;28;20482;-72
2023/05/11 05:55:57;;;;;;;96.18;89.18;;;11.70;99.90;;;;;;4968643;28;20545;-72
2023/05/11 05:58:22;;;;;;;92.25;85.20;;;11.70;99.90;;;;;;5006553;28;20129;-72
2023/05/11 06:00:48;;;;;;;70.45;64.95;;;11.80;99.90;;;;;;4987283;28;20033;-72
2023/05/11 06:03:14;;;;;;;67.85;62.30;;;11.80;99.90;;;;;;4990295;28;20046;-72
2023/05/11 06:05:39;;;;;;;76.85;70.35;;;11.80;99.90;;;;;;4976912;28;20081;-72
2023/05/11 06:08:05;;;;;;;65.03;59.17;;;11.90;99.90;;;;;;4991389;28;20045;-72
2023/05/11 06:10:31;;;;;;;70.90;64.72;;;11.90;99.90;;;;;;4972341;28;20560;-72
2023/05/11 06:12:57;;;;;;;65.40;60.00;;;12.00;99.90;;;;;;4990212;28;20042;-72
2023/05/11 06:15:22;;;;;;;71.55;65.85;;;12.00;99.90;;;;;;4989646;28;20073;-72
2023/05/11 06:17:48;;;;;;;70.00;64.60;;;12.10;99.90;;;;;;4980775;28;20046;-72
2023/05/11 06:20:13;;;;;;;75.85;70.00;;;12.00;99.90;;;;;;4973334;28;20046;-72
2023/05/11 06:22:39;;;;;;;78.30;72.32;;;12.10;99.90;;;;;;4989326;28;20058;-72
2023/05/11 06:25:05;;;;;;;92.60;86.40;;;12.10;99.90;;;;;;4962444;28;20046;-72
2023/05/11 06:27:31;;;;;;;90.15;83.88;;;12.10;99.90;;;;;;4982320;28;20096;-72
2023/05/11 06:29:56;;;;;;;84.38;78.53;;;12.10;99.90;;;;;;4968984;28;20562;-72
2023/05/11 06:32:22;;;;;;;84.60;78.45;;;12.10;99.90;;;;;;4983259;28;20046;-72
2023/05/11 06:34:48;;;;;;;95.30;88.75;;;12.10;99.90;;;;;;4983543;28;20097;-72
2023/05/11 06:37:19;;;;;;;92.32;86.00;;;12.10;99.90;;;;;;4984725;28;20101;-73
2023/05/11 06:39:48;;;;;;;89.47;83.15;;;12.20;99.90;;;;;;4968150;28;20046;-72
2023/05/11 06:42:13;;;;;;;90.28;83.88;;;12.20;99.90;;;;;;4982625;28;20050;-72
2023/05/11 06:44:40;;;;;;;98.90;92.63;;;12.20;99.90;;;;;;4983031;28;20046;-72
2023/05/11 06:47:07;;;;;;;68.07;62.72;;;12.20;99.90;;;;;;4985537;28;20042;-72
2023/05/11 06:49:33;;;;;;;81.43;75.82;;;12.30;99.90;;;;;;4988627;28;20058;-72
2023/05/11 06:51:58;;;;;;;55.10;50.60;;;12.30;99.90;;;;;;4987324;28;20624;-72
2023/05/11 06:54:24;;;;;;;66.38;61.58;;;12.30;99.90;;;;;;4987952;28;20089;-72
2023/05/11 06:56:50;;;;;;;68.10;63.03;;;12.20;99.90;;;;;;4972476;28;20042;-72
2023/05/11 06:59:15;;;;;;;81.45;76.10;;;12.30;99.90;;;;;;4986673;28;20492;-72
2023/05/11 07:01:41;;;;;;;66.70;62.03;;;12.30;99.90;;;;;;4975959;28;20065;-72
2023/05/11 07:04:07;;;;;;;60.67;56.22;;;12.30;99.90;;;;;;4989139;28;20048;-72
2023/05/11 07:06:33;;;;;;;66.97;62.45;;;12.30;99.90;;;;;;4988620;28;20391;-72
2023/05/11 07:08:58;;;;;;;69.63;64.90;;;12.30;99.90;;;;;;5002086;28;20058;-72
2023/05/11 07:11:24;;;;;;;59.03;54.70;;;12.40;99.90;;;;;;4989347;28;20441;-72
2023/05/11 07:13:50;;;;;;;70.25;65.45;;;12.40;99.90;;;;;;4987208;28;20157;-72
2023/05/11 07:16:16;;;;;;;78.82;73.78;;;12.40;99.90;;;;;;4988807;28;20050;-73
2023/05/11 07:18:42;;;;;;;65.10;60.92;;;12.50;99.90;;;;;;4981901;28;20451;-72
2023/05/11 07:21:07;;;;;;;60.78;56.00;;;12.60;99.90;;;;;;4982862;28;20045;-72
2023/05/11 07:23:33;;;;;;;50.10;46.33;;;12.70;99.90;;;;;;5004953;28;20093;-72
2023/05/11 07:25:59;;;;;;;51.13;47.45;;;12.70;99.90;;;;;;4987648;28;20165;-73
2023/05/11 07:28:24;;;;;;;52.53;48.60;;;12.70;99.90;;;;;;4989619;28;20092;-72
2023/05/11 07:30:50;;;;;;;51.45;47.63;;;12.70;99.90;;;;;;4986399;28;20056;-72
2023/05/11 07:33:16;;;;;;;54.33;50.33;;;12.80;99.90;;;;;;4975937;28;20042;-72
2023/05/11 07:35:41;;;;;;;43.90;40.30;;;12.90;99.90;;;;;;4988255;28;20065;-72
2023/05/11 07:38:09;;;;;;;56.20;52.30;;;13.00;99.90;;;;;;4977682;28;20058;-72
2023/05/11 07:40:35;;;;;;;45.10;41.55;;;13.00;99.90;;;;;;4983526;28;20043;-72
2023/05/11 07:43:00;;;;;;;45.50;41.72;;;13.10;99.90;;;;;;4987241;28;20038;-72
2023/05/11 07:45:26;;;;;;;46.25;42.83;;;13.10;99.90;;;;;;4987858;28;20049;-72
2023/05/11 07:47:52;;;;;;;46.80;43.22;;;13.20;99.90;;;;;;4976776;28;20057;-72
2023/05/11 07:50:17;;;;;;;48.22;44.72;;;13.20;99.90;;;;;;4988702;28;20043;-72
2023/05/11 07:52:43;;;;;;;44.88;41.55;;;13.30;99.90;;;;;;4986128;28;20483;-72
2023/05/11 07:55:09;;;;;;;48.55;44.80;;;13.20;99.90;;;;;;4983157;28;20050;-72
2023/05/11 07:57:34;;;;;;;47.03;43.33;;;13.20;99.90;;;;;;4985599;28;20038;-73
2023/05/11 08:00:00;;;;;;;45.42;41.92;;;13.20;99.90;;;;;;4987490;28;20066;-72
2023/05/11 08:02:25;;;;;;;59.85;55.95;;;13.30;99.90;;;;;;4968975;28;20051;-72
2023/05/11 08:04:51;;;;;;;47.22;43.67;;;13.20;99.90;;;;;;4985292;28;20052;-73
2023/05/11 08:07:17;;;;;;;72.43;68.25;;;13.20;99.90;;;;;;4974170;28;20045;-72
2023/05/11 08:09:43;;;;;;;57.92;54.20;;;13.30;99.90;;;;;;4988344;28;20046;-72
2023/05/11 08:12:08;;;;;;;112.07;106.38;;;13.30;99.90;;;;;;4978435;28;20069;-72
2023/05/11 08:14:34;;;;;;;49.28;45.95;;;13.30;99.90;;;;;;4987071;28;20407;-72
2023/05/11 08:17:00;;;;;;;86.82;82.28;;;13.30;99.90;;;;;;4976313;28;20073;-72
2023/05/11 08:19:25;;;;;;;58.97;55.53;;;13.40;99.90;;;;;;4983852;28;20070;-72
2023/05/11 08:21:51;;;;;;;65.38;61.70;;;13.50;99.90;;;;;;4987393;28;20068;-72
2023/05/11 08:24:17;;;;;;;70.57;66.70;;;13.60;99.90;;;;;;4984454;28;20074;-72
2023/05/11 08:26:42;;;;;;;50.55;47.35;;;13.60;99.90;;;;;;4983298;28;20042;-72
2023/05/11 08:29:10;;;;;;;48.70;45.25;;;13.60;99.90;;;;;;4986491;28;20506;-72
2023/05/11 08:31:35;;;;;;;65.43;61.72;;;13.80;99.90;;;;;;4983798;28;20049;-72
2023/05/11 08:34:01;;;;;;;83.07;78.75;;;13.80;99.90;;;;;;4972653;28;20487;-72
2023/05/11 08:36:27;;;;;;;55.97;52.58;;;13.80;99.90;;;;;;4982029;28;20042;-72
2023/05/11 08:38:53;;;;;;;72.25;68.15;;;13.80;99.90;;;;;;4984332;28;20041;-72
2023/05/11 08:41:18;;;;;;;72.28;68.18;;;13.80;99.90;;;;;;4984108;28;20104;-72
2023/05/11 08:43:45;;;;;;;49.75;46.45;;;13.70;99.90;;;;;;4984384;28;20551;-72
2023/05/11 08:46:15;;;;;;;47.80;44.70;;;13.80;99.90;;;;;;4984022;28;20418;-72
2023/05/11 08:48:41;;;;;;;90.07;85.30;;;13.80;99.90;;;;;;4975731;28;20045;-72
2023/05/11 08:51:08;;;;;;;53.55;49.92;;;13.90;99.90;;;;;;4985136;28;20049;-72
2023/05/11 08:53:34;;;;;;;54.45;50.88;;;13.80;99.90;;;;;;4968399;28;20369;-72
2023/05/11 08:56:00;;;;;;;83.28;78.85;;;13.80;99.90;;;;;;4981174;28;20490;-72
2023/05/11 08:58:27;;;;;;;51.53;47.75;;;13.80;99.90;;;;;;4987410;28;20042;-72
2023/05/11 09:00:54;;;;;;;51.90;48.30;;;13.80;99.90;;;;;;4979880;28;20069;-72
2023/05/11 09:03:21;;;;;;;48.40;44.63;;;13.80;99.90;;;;;;4987092;28;20077;-72
2023/05/11 09:05:47;;;;;;;44.47;41.00;;;13.90;99.90;;;;;;4969042;28;20092;-72
2023/05/11 09:08:16;;;;;;;46.95;43.35;;;13.90;99.90;;;;;;4984437;28;20046;-72
2023/05/11 09:10:43;;;;;;;47.40;44.00;;;13.90;99.90;;;;;;4961152;28;20042;-72
2023/05/11 09:13:08;;;;;;;48.72;45.10;;;14.00;99.90;;;;;;4985456;28;20054;-72
2023/05/11 09:15:34;;;;;;;80.85;76.07;;;14.00;99.90;;;;;;4984332;28;20048;-72
2023/05/11 09:18:01;;;;;;;75.07;70.40;;;14.10;99.90;;;;;;4985433;28;20371;-72
2023/05/11 09:20:29;;;;;;;63.45;59.20;;;14.10;99.90;;;;;;4986768;28;20073;-72
2023/05/11 09:22:55;;;;;;;50.42;46.90;;;14.10;99.90;;;;;;4985820;28;20038;-72
2023/05/11 09:25:22;;;;;;;138.45;131.30;;;14.20;99.90;;;;;;4990409;28;20502;-72
2023/05/11 09:27:48;;;;;;;104.40;98.82;;;14.30;99.90;;;;;;4980178;28;20096;-72
2023/05/11 09:30:16;;;;;;;68.25;63.80;;;14.30;99.90;;;;;;4990059;28;20042;-72
2023/05/11 09:32:59;;;;;;;76.38;72.03;;;14.40;99.90;;;;;;4989653;28;20114;-72
2023/05/11 09:35:29;;;;;;;76.40;71.68;;;14.50;99.90;;;;;;4982279;28;20050;-72
2023/05/11 09:38:13;;;;;;;113.20;107.18;;;14.60;99.90;;;;;;4988362;28;20417;-72
2023/05/11 09:40:49;;;;;;;90.68;85.85;;;14.70;99.90;;;;;;4989576;28;20034;-72
2023/05/11 09:43:19;;;;;;;96.60;91.47;;;14.70;99.90;;;;;;4974654;28;20043;-72
2023/05/11 09:45:49;;;;;;;104.13;98.88;;;14.70;99.90;;;;;;4982165;28;20035;-72
2023/05/11 09:48:18;;;;;;;81.82;77.13;;;14.70;99.90;;;;;;4988699;28;20085;-72
2023/05/11 09:50:44;;;;;;;93.82;88.95;;;14.70;99.90;;;;;;4988468;28;20042;-72
2023/05/11 09:53:10;;;;;;;61.72;57.90;;;14.80;99.90;;;;;;4986055;28;20348;-71
2023/05/11 09:55:36;;;;;;;99.32;94.00;;;14.80;99.90;;;;;;4984807;28;20483;-72
2023/05/11 09:58:03;;;;;;;100.60;95.38;;;14.80;99.90;;;;;;4989557;28;20401;-71
2023/05/11 10:00:29;;;;;;;95.97;90.95;;;14.80;99.90;;;;;;4983272;28;20052;-71
2023/05/11 10:03:02;;;;;;;109.65;104.03;;;14.70;99.90;;;;;;4986418;28;20058;-72
2023/05/11 10:05:30;;;;;;;100.32;95.32;;;14.70;99.90;;;;;;4985194;28;20117;-72
2023/05/11 10:08:04;;;;;;;84.18;79.63;;;14.80;99.90;;;;;;4986095;28;20419;-71
2023/05/11 10:10:33;;;;;;;85.70;81.13;;;14.70;99.90;;;;;;4988740;28;20046;-72
2023/05/11 10:13:01;;;;;;;76.63;72.60;;;14.80;99.90;;;;;;4975224;28;20046;-72
2023/05/11 10:15:27;;;;;;;49.70;46.42;;;14.90;99.90;;;;;;4987924;28;20979;-72
2023/05/11 10:17:54;;;;;;;66.70;62.83;;;15.00;99.90;;;;;;4983666;28;20039;-71
2023/05/11 10:20:20;;;;;;;54.58;51.17;;;15.20;99.90;;;;;;5001789;28;20506;-72
2023/05/11 10:22:46;;;;;;;51.15;47.83;;;15.40;99.90;;;;;;4987943;28;20046;-72
2023/05/11 10:25:13;;;;;;;49.97;46.80;;;15.60;99.90;;;;;;4980845;28;20579;-72
2023/05/11 10:27:39;;;;;;;48.70;45.50;;;15.60;99.90;;;;;;4983854;28;20072;-72
2023/05/11 10:30:07;;;;;;;41.05;38.25;;;15.60;99.90;;;;;;4987165;28;20097;-71
2023/05/11 10:32:38;;;;;;;56.80;53.42;;;15.70;99.90;;;;;;4987943;28;20054;-72
2023/05/11 10:35:05;;;;;;;50.63;47.55;;;16.00;99.90;;;;;;4985766;28;20610;-72
2023/05/11 10:37:32;;;;;;;48.63;45.63;;;16.10;99.90;;;;;;4979331;28;20510;-72
2023/05/11 10:39:58;;;;;;;48.50;45.42;;;16.10;99.90;;;;;;4968617;28;20053;-71
2023/05/11 10:42:38;;;;;;;39.20;36.58;;;16.20;99.90;;;;;;4980539;28;20563;-72
2023/05/11 10:45:12;;;;;;;42.83;40.08;;;16.30;99.90;;;;;;4977808;28;20454;-72
2023/05/11 10:47:43;;;;;;;34.88;32.60;;;16.40;99.90;;;;;;4966696;28;20046;-72
2023/05/11 10:50:33;;;;;;;36.63;34.13;;;16.70;99.90;;;;;;4975818;28;20042;-72
2023/05/11 10:53:17;;;;;;;34.70;32.35;;;16.90;99.90;;;;;;4977917;28;20387;-72
2023/05/11 10:56:02;;;;;;;29.30;27.00;;;16.90;99.90;;;;;;4999593;28;20034;-72
2023/05/11 10:58:41;;;;;;;;;;;16.90;99.90;;;;;;4981566;28;20050;-72
2023/05/11 11:01:33;;;;;;;30.33;28.13;;;16.80;99.90;;;;;;4981210;28;19933;-72
2023/05/11 11:04:03;;;;;;;29.27;27.23;;;16.80;99.90;;;;;;4981605;28;20061;-72
2023/05/11 11:06:30;;;;;;;29.35;27.05;;;16.80;99.90;;;;;;5000229;28;20101;-72
2023/05/11 11:09:15;;;;;;;29.02;27.00;;;16.80;99.90;;;;;;4968351;28;20469;-72
2023/05/11 11:11:45;;;;;;;36.33;33.95;;;16.90;99.90;;;;;;4984897;28;20053;-72
2023/05/11 11:14:14;;;;;;;26.63;24.63;;;16.80;99.90;;;;;;4979343;28;20052;-72
2023/05/11 11:17:00;;;;;;;32.90;30.58;;;16.80;99.90;;;;;;4970845;28;20044;-72
2023/05/11 11:19:29;;;;;;;34.38;32.03;;;16.90;99.90;;;;;;4972448;28;20128;-72
2023/05/11 11:21:59;;;;;;;20.10;18.58;;;17.10;99.90;;;;;;4978075;28;20100;-72
2023/05/11 11:24:37;;;;;;;49.22;46.30;;;17.20;99.90;;;;;;4979856;28;20057;-72
2023/05/11 11:27:07;;;;;;;65.20;61.75;;;17.20;99.90;;;;;;4981271;28;20367;-72
2023/05/11 11:29:38;;;;;;;39.17;36.65;;;17.20;99.90;;;;;;4970099;28;20093;-72
2023/05/11 11:32:23;;;;;;;59.28;56.05;;;17.30;99.90;;;;;;4967593;28;20085;-72
2023/05/11 11:34:49;;;;;;;59.38;56.22;;;17.40;99.90;;;;;;4984701;28;20398;-72
2023/05/11 11:37:16;;;;;;;68.25;64.78;;;17.50;99.90;;;;;;4987487;28;20065;-72
2023/05/11 11:39:41;;;;;;;41.80;39.35;;;17.60;99.90;;;;;;4983378;28;20041;-72
2023/05/11 11:42:12;;;;;;;58.65;55.50;;;17.60;99.90;;;;;;4984991;28;20042;-72
2023/05/11 11:44:39;;;;;;;56.17;53.08;;;17.60;99.90;;;;;;4987673;28;20049;-72
2023/05/11 11:47:19;;;;;;;50.38;47.63;;;17.70;99.90;;;;;;4987212;28;20089;-72
2023/05/11 11:49:47;;;;;;;34.83;32.83;;;17.90;99.90;;;;;;4987680;28;20468;-72
2023/05/11 11:52:31;;;;;;;97.97;93.30;;;17.80;99.90;;;;;;4986538;28;20038;-72
2023/05/11 11:55:02;;;;;;;36.70;34.55;;;17.80;99.90;;;;;;4986705;28;20042;-72
2023/05/11 11:57:31;;;;;;;33.28;31.20;;;17.80;99.90;;;;;;4998690;28;20047;-72
2023/05/11 12:00:04;;;;;;;58.35;55.42;;;17.80;99.90;;;;;;5002854;28;20042;-72
2023/05/11 12:02:30;;;;;;;46.25;43.88;;;17.70;99.90;;;;;;4986439;28;20065;-72
2023/05/11 12:05:20;;;;;;;54.63;51.92;;;17.60;99.90;;;;;;4977231;28;20120;-72
2023/05/11 12:07:48;;;;;;;56.97;54.28;;;17.60;99.90;;;;;;4998597;28;20050;-72
2023/05/11 12:10:16;;;;;;;153.50;146.88;;;17.50;99.90;;;;;;4983371;28;20047;-72
2023/05/11 12:12:50;;;;;;;41.72;39.58;;;17.60;99.90;;;;;;4969575;28;20438;-72
2023/05/11 12:15:26;;;;;;;69.18;65.78;;;17.90;99.90;;;;;;4979952;28;20138;-72
2023/05/11 12:17:51;;;;;;;48.60;46.08;;;18.00;99.90;;;;;;4987592;28;20072;-72
2023/05/11 12:20:18;;;;;;;86.05;82.13;;;18.20;99.90;;;;;;4982956;28;20074;-72
2023/05/11 12:22:48;;;;;;;51.85;49.30;;;18.20;99.90;;;;;;4977044;28;20037;-72
2023/05/11 12:25:18;;;;;;;63.35;60.33;;;18.30;99.90;;;;;;4979386;28;20081;-72
2023/05/11 12:27:51;;;;;;;70.60;67.18;;;18.40;99.90;;;;;;4988576;28;20046;-72
2023/05/11 12:30:20;;;;;;;93.35;89.22;;;18.40;99.90;;;;;;4987252;28;20050;-73